Terminal Aerodrome Forecast
Issued by NWS Brownsville, TX

Home | Current Version | Previous Version | Text Only | Print | Product List | Glossary On
Versions: 1 2 3 4 5 6 7 8 9 10 11 12 13 14 15 16
000
FTUS44 KBRO 282200 AAB
TAFMFE
TAF AMD
KMFE 282241Z 2823/2918 34010KT P6SM OVC020
     FM290000 33007KT P6SM BKN035
     FM290300 33005KT P6SM SKC
     FM291100 32002KT 2SM BR SKC=

USA.gov is the U.S. government's official web portal to all federal, state and local government web resources and services.